Blandford, Massachusetts
Current Conditions -  °F | °C
As of 11:18 AM on Thursday 23 Oct 2014 (Local Time) from KBAF Reporting Station
Moderate Rain Moderate Rain  
Wind Chill: 50°   Ceiling: 6000
Heat Index: 50°   Visibility: 6mi
Dew Point: 46°   Wind: 26mph
Humidity: 86%   Direction: 360°N
Pressure: 29.64"   Gusts: 37mph
Location:  42.18°N, 72.93°W
Report Text: KBAF 231518Z 36023G32KT 6SM RA BR SCT017 BKN060 OVC080 10/08 A2964 RMK AO2 PK WND 35032/1509 P0005 T01000078
Loading
Personal Weather Stations






























Interactive Weather Map
Tropical Storm Tracking
New forecast layout! Learn more

10-Day Weather Forecast

Advertisements
Track Severe Weather on mobile